createdAt,value
2023-05-04T00:00:47.087Z,101142.73
2023-05-04T00:01:49.269Z,101142.38
2023-05-04T00:02:51.448Z,101140.83
2023-05-04T00:03:53.778Z,101153.60
2023-05-04T00:04:56.566Z,101144.52
2023-05-04T00:05:59.277Z,101147.30
2023-05-04T00:07:01.723Z,101151.30
2023-05-04T00:08:05.113Z,101148.17
2023-05-04T00:09:11.191Z,101148.17
2023-05-04T00:10:14.134Z,101146.61
2023-05-04T00:11:16.422Z,101147.39
2023-05-04T00:12:18.533Z,101151.39
2023-05-04T00:13:21.041Z,101149.39
2023-05-04T00:14:23.141Z,101155.73
2023-05-04T00:15:24.976Z,101152.17
2023-05-04T00:16:27.159Z,101156.52
2023-05-04T00:17:29.403Z,101157.73
2023-05-04T00:18:31.940Z,101150.61
2023-05-04T00:19:35.022Z,101150.27
2023-05-04T00:20:38.585Z,101154.61
2023-05-04T00:21:40.831Z,101153.05
2023-05-04T00:22:43.029Z,101153.83
2023-05-04T00:23:45.153Z,101153.05
2023-05-04T00:24:47.229Z,101149.93
2023-05-04T00:25:49.540Z,101149.59
2023-05-04T00:26:51.765Z,101148.81
2023-05-04T00:27:54.161Z,101150.03
2023-05-04T00:28:56.810Z,101153.59
2023-05-04T00:29:59.010Z,101153.59
2023-05-04T00:31:01.445Z,101152.81
2023-05-04T00:32:05.817Z,101159.14
2023-05-04T00:33:08.177Z,101150.03
2023-05-04T00:34:10.631Z,101154.81
2023-05-04T00:35:12.838Z,101158.37
2023-05-04T00:36:14.937Z,101155.59
2023-05-04T00:37:16.927Z,101148.03
2023-05-04T00:38:19.631Z,101150.81
2023-05-04T00:39:21.736Z,101157.14
2023-05-04T00:40:25.489Z,101156.37
2023-05-04T00:41:27.706Z,101153.59
2023-05-04T00:42:29.759Z,101156.37
2023-05-04T00:43:31.835Z,101150.81
2023-05-04T00:44:33.977Z,101153.16
2023-05-04T00:45:37.972Z,101161.05
2023-05-04T00:46:41.960Z,101162.27
2023-05-04T00:47:44.596Z,101159.14
2023-05-04T00:48:48.916Z,101162.80
2023-05-04T00:49:51.985Z,101164.80
2023-05-04T00:50:55.333Z,101165.24
2023-05-04T00:51:57.591Z,101156.59
2023-05-04T00:53:01.314Z,101157.03
2023-05-04T00:54:03.548Z,101161.03
2023-05-04T00:55:09.496Z,101159.47
2023-05-04T00:56:11.872Z,101157.91
2023-05-04T00:57:15.859Z,101155.13
2023-05-04T00:58:18.455Z,101162.68
2023-05-04T00:59:20.754Z,101168.24
2023-05-04T01:00:22.873Z,101167.45
2023-05-04T01:01:26.634Z,101162.68
2023-05-04T01:02:29.104Z,101165.46
2023-05-04T01:03:32.288Z,101164.34
2023-05-04T01:04:34.425Z,101165.90
2023-05-04T01:05:40.378Z,101152.79
2023-05-04T01:09:36.536Z,101153.34
2023-05-04T01:10:48.695Z,101152.88
2023-05-04T01:11:59.909Z,101153.75
2023-05-04T01:13:08.414Z,101154.97
2023-05-04T01:14:10.599Z,101152.64
2023-05-04T01:15:13.594Z,101156.63
2023-05-04T01:16:16.999Z,101153.07
2023-05-04T01:17:20.013Z,101157.04
2023-05-04T01:18:22.089Z,101154.26
2023-05-04T01:19:24.249Z,101161.03
2023-05-04T01:20:27.457Z,101163.81
2023-05-04T01:21:31.429Z,101158.63
2023-05-04T01:22:33.505Z,101163.75
2023-05-04T01:23:35.540Z,101158.19
2023-05-04T01:24:37.830Z,101162.87
2023-05-04T01:25:46.881Z,101164.88
2023-05-04T01:26:53.414Z,101162.53
2023-05-04T01:27:58.467Z,101149.48
2023-05-04T01:29:10.309Z,101146.39
2023-05-04T01:30:16.670Z,101147.61
2023-05-04T01:31:22.335Z,101150.39
2023-05-04T01:32:27.660Z,101148.83
2023-05-04T01:33:29.932Z,101153.16
2023-05-04T01:34:34.959Z,101154.04
2023-05-04T01:35:37.063Z,101153.27
2023-05-04T01:36:41.762Z,101151.70
2023-05-04T01:37:44.777Z,101144.14
2023-05-04T01:38:51.197Z,101150.48
2023-05-04T01:39:53.521Z,101144.92
2023-05-04T01:40:55.952Z,101144.48
2023-05-04T01:41:58.170Z,101136.94
2023-05-04T01:43:00.349Z,101135.81
2023-05-04T01:44:04.948Z,101129.13
2023-05-04T01:45:10.807Z,101136.69
2023-05-04T01:46:13.779Z,101133.56
2023-05-04T01:47:16.135Z,101132.88
2023-05-04T01:48:18.323Z,101130.09
2023-05-04T01:49:20.321Z,101130.19
2023-05-04T01:50:23.768Z,101127.41
2023-05-04T01:51:25.865Z,101137.74
2023-05-04T01:52:27.811Z,101134.19
2023-05-04T01:53:29.969Z,101127.10
2023-05-04T01:54:32.262Z,101139.43
2023-05-04T01:55:34.399Z,101135.87
2023-05-04T01:56:36.876Z,101132.31
2023-05-04T01:57:39.571Z,101131.87
2023-05-04T01:58:44.908Z,101129.09
2023-05-04T01:59:47.286Z,101134.66
2023-05-04T02:00:50.863Z,101130.66
2023-05-04T02:01:53.158Z,101130.31
2023-05-04T02:02:55.798Z,101137.87
2023-05-04T02:03:58.578Z,101139.43
2023-05-04T02:05:01.083Z,101141.08
2023-05-04T02:06:05.375Z,101139.86
2023-05-04T02:07:08.052Z,101137.52
2023-05-04T02:08:10.213Z,101138.73
2023-05-04T02:09:12.226Z,101130.84
2023-05-04T02:10:14.621Z,101138.39
2023-05-04T02:11:16.592Z,101142.48
2023-05-04T02:12:20.636Z,101134.58
2023-05-04T02:13:22.812Z,101147.69
2023-05-04T02:14:25.335Z,101146.13
2023-05-04T02:15:27.585Z,101160.00
2023-05-04T02:16:31.063Z,101157.31
2023-05-04T02:17:33.681Z,101152.23
2023-05-04T02:18:35.982Z,101152.66
2023-05-04T02:19:38.042Z,101149.89
2023-05-04T02:20:42.468Z,101142.77
2023-05-04T02:21:45.623Z,101145.55
2023-05-04T02:22:47.929Z,101143.98
2023-05-04T02:23:50.216Z,101141.64
2023-05-04T02:24:52.411Z,101140.86
2023-05-04T02:25:54.650Z,101139.73
2023-05-04T02:26:57.126Z,101142.52
2023-05-04T02:27:59.329Z,101142.16
2023-05-04T02:29:01.470Z,101144.59
2023-05-04T02:30:05.564Z,101144.68
2023-05-04T02:31:08.195Z,101147.11
2023-05-04T02:32:10.893Z,101149.56
2023-05-04T02:33:13.080Z,101149.22
2023-05-04T02:34:17.096Z,101143.75
2023-05-04T02:35:21.391Z,101143.41
2023-05-04T02:36:23.963Z,101144.63
2023-05-04T02:37:26.185Z,101150.60
2023-05-04T02:38:28.321Z,101146.27
2023-05-04T02:39:30.993Z,101157.80
2023-05-04T02:40:34.123Z,101140.80
2023-05-04T02:41:36.595Z,101149.55
2023-05-04T02:42:38.856Z,101135.69
2023-05-04T02:43:42.900Z,101137.67
2023-05-04T02:44:45.012Z,101137.24
2023-05-04T02:45:47.767Z,101128.92
2023-05-04T02:46:52.024Z,101140.45
2023-05-04T02:47:54.267Z,101135.45
2023-05-04T02:48:56.787Z,101133.88
2023-05-04T02:49:59.149Z,101131.55
2023-05-04T02:51:02.689Z,101144.63
2023-05-04T02:52:05.772Z,101137.09
2023-05-04T02:53:07.883Z,101137.88
2023-05-04T02:54:09.989Z,101138.66
2023-05-04T02:55:12.364Z,101133.10
2023-05-04T02:56:15.010Z,101141.00
2023-05-04T02:57:17.092Z,101145.33
2023-05-04T02:58:19.355Z,101146.46
2023-05-04T02:59:21.572Z,101144.47
2023-05-04T03:00:25.297Z,101150.45
2023-05-04T03:01:27.620Z,101148.89
2023-05-04T03:02:30.345Z,101146.55
2023-05-04T03:03:32.520Z,101147.76
2023-05-04T03:04:35.392Z,101144.55
2023-05-04T03:05:37.825Z,101140.45
2023-05-04T03:06:40.272Z,101145.91
2023-05-04T03:07:42.749Z,101134.73
2023-05-04T03:08:44.944Z,101133.52
2023-05-04T03:09:48.055Z,101139.42
2023-05-04T03:10:51.169Z,101135.08
2023-05-04T03:11:53.151Z,101135.86
2023-05-04T03:12:55.446Z,101139.42
2023-05-04T03:13:57.894Z,101131.87
2023-05-04T03:15:08.836Z,101130.66
2023-05-04T03:16:11.408Z,101133.00
2023-05-04T03:17:15.621Z,101122.25
2023-05-04T03:18:17.733Z,101125.02
2023-05-04T03:19:21.469Z,101115.48
2023-05-04T03:20:25.428Z,101120.60
2023-05-04T03:21:27.779Z,101115.05
2023-05-04T03:22:29.950Z,101115.05
2023-05-04T03:23:31.972Z,101115.37
2023-05-04T03:24:33.950Z,101113.38
2023-05-04T03:25:36.164Z,101114.15
2023-05-04T03:26:40.133Z,101116.93
2023-05-04T03:27:43.778Z,101119.27
2023-05-04T03:28:46.127Z,101123.26
2023-05-04T03:29:49.206Z,101118.84
2023-05-04T03:30:51.884Z,101129.94
2023-05-04T03:31:54.683Z,101130.80
2023-05-04T03:32:57.491Z,101127.59
2023-05-04T03:34:00.357Z,101128.81
2023-05-04T03:35:09.016Z,101130.02
2023-05-04T03:36:11.824Z,101124.04
2023-05-04T03:37:14.794Z,101129.16
2023-05-04T03:38:16.888Z,101133.15
2023-05-04T03:39:18.990Z,101130.80
2023-05-04T03:40:25.179Z,101127.68
2023-05-04T03:41:28.272Z,101128.46
2023-05-04T03:42:31.558Z,101133.15
2023-05-04T03:43:35.515Z,101128.72
2023-05-04T03:44:37.539Z,101130.28
2023-05-04T03:45:39.888Z,101131.41
2023-05-04T03:46:42.500Z,101134.19
2023-05-04T03:47:45.969Z,101135.31
2023-05-04T03:48:48.730Z,101136.78
2023-05-04T03:49:51.227Z,101134.67
2023-05-04T03:50:53.307Z,101139.35
2023-05-04T03:51:55.434Z,101134.58
2023-05-04T03:52:58.188Z,101136.92
2023-05-04T03:54:01.968Z,101142.04
2023-05-04T03:55:06.620Z,101148.72
2023-05-04T03:56:09.815Z,101147.06
2023-05-04T03:57:11.724Z,101137.17
2023-05-04T03:58:14.460Z,101148.63
2023-05-04T03:59:16.791Z,101154.19
2023-05-04T04:00:19.979Z,101155.40
2023-05-04T04:01:24.007Z,101143.86
2023-05-04T04:02:26.256Z,101157.73
2023-05-04T04:03:29.689Z,101149.41
2023-05-04T04:04:32.287Z,101141.86
2023-05-04T04:05:34.367Z,101151.41
2023-05-04T04:06:37.566Z,101146.98
2023-05-04T04:07:42.706Z,101146.20
2023-05-04T04:08:45.048Z,101154.88
2023-05-04T04:09:47.143Z,101149.20
2023-05-04T04:10:49.666Z,101149.89
2023-05-04T04:11:51.858Z,101147.45
2023-05-04T04:12:54.242Z,101152.91
2023-05-04T04:13:56.399Z,101150.48
2023-05-04T04:14:58.791Z,101142.92
2023-05-04T04:16:00.997Z,101142.05
2023-05-04T04:17:03.518Z,101143.52
2023-05-04T04:18:05.976Z,101138.98
2023-05-04T04:19:08.857Z,101151.56
2023-05-04T04:20:13.306Z,101151.78
2023-05-04T04:21:15.490Z,101143.79
2023-05-04T04:22:17.674Z,101140.13
2023-05-04T04:23:20.588Z,101145.25
2023-05-04T04:24:22.948Z,101142.03
2023-05-04T04:25:25.163Z,101140.81
2023-05-04T04:26:28.330Z,101139.94
2023-05-04T04:27:30.380Z,101144.95
2023-05-04T04:28:34.473Z,101135.70
2023-05-04T04:29:36.803Z,101144.73
2023-05-04T04:30:38.989Z,101146.63
2023-05-04T04:31:41.261Z,101141.74
2023-05-04T04:32:43.769Z,101148.08
2023-05-04T04:33:46.089Z,101147.64
2023-05-04T04:34:48.333Z,101151.54
2023-05-04T04:35:50.426Z,101156.53
2023-05-04T04:36:52.552Z,101149.30
2023-05-04T04:37:54.684Z,101157.64
2023-05-04T04:38:56.969Z,101162.53
2023-05-04T04:39:59.253Z,101166.09
2023-05-04T04:41:01.629Z,101163.31
2023-05-04T04:42:03.757Z,101160.43
2023-05-04T04:43:05.898Z,101158.77
2023-05-04T04:44:08.040Z,101151.64
2023-05-04T04:45:13.408Z,101166.43
2023-05-04T04:46:15.475Z,101161.31
2023-05-04T04:47:17.690Z,101166.77
2023-05-04T04:48:19.901Z,101174.77
2023-05-04T04:49:22.040Z,101166.66
2023-05-04T04:50:24.191Z,101164.42
2023-05-04T04:51:26.333Z,101165.98
2023-05-04T04:52:28.534Z,101165.55
2023-05-04T04:53:30.801Z,101168.66
2023-05-04T04:54:35.865Z,101164.22
2023-05-04T04:55:38.302Z,101177.22
2023-05-04T04:56:42.757Z,101170.77
2023-05-04T04:57:44.947Z,101160.33
2023-05-04T04:58:47.593Z,101163.89
2023-05-04T04:59:49.701Z,101166.23
2023-05-04T05:00:53.135Z,101166.56
2023-05-04T05:01:55.533Z,101159.67
2023-05-04T05:02:57.676Z,101158.11
2023-05-04T05:03:59.851Z,101157.20
2023-05-04T05:05:02.058Z,101155.54
2023-05-04T05:06:05.466Z,101157.09
2023-05-04T05:07:07.386Z,101158.21
2023-05-04T05:08:09.417Z,101155.87
2023-05-04T05:09:11.527Z,101160.66
2023-05-04T05:10:14.506Z,101158.66
2023-05-04T05:11:17.288Z,101163.67
2023-05-04T05:12:19.321Z,101164.45
2023-05-04T05:13:21.656Z,101170.25
2023-05-04T05:14:24.175Z,101171.80
2023-05-04T05:15:26.197Z,101168.58
2023-05-04T05:16:28.658Z,101167.66
2023-05-04T05:17:31.214Z,101174.68
2023-05-04T05:18:34.912Z,101166.89
2023-05-04T05:19:37.055Z,101177.67
2023-05-04T05:20:39.997Z,101165.09
2023-05-04T05:21:42.138Z,101173.52
2023-05-04T05:22:44.376Z,101171.64
2023-05-04T05:23:46.742Z,101169.52
2023-05-04T05:24:48.866Z,101163.48
2023-05-04T05:25:51.171Z,101166.92
2023-05-04T05:26:53.770Z,101161.23
2023-05-04T05:27:55.937Z,101158.00
2023-05-04T05:28:58.145Z,101156.78
2023-05-04T05:30:01.555Z,101159.89
2023-05-04T05:31:04.169Z,101159.89
2023-05-04T05:32:08.200Z,101163.67
2023-05-04T05:33:10.519Z,101164.30
2023-05-04T05:34:13.553Z,101164.06
2023-05-04T05:35:15.577Z,101166.61
2023-05-04T05:36:17.962Z,101169.69
2023-05-04T05:37:20.147Z,101167.69
2023-05-04T05:38:22.311Z,101165.23
2023-05-04T05:39:24.763Z,101167.89
2023-05-04T05:40:28.089Z,101165.55
2023-05-04T05:41:30.742Z,101167.56
2023-05-04T05:42:33.420Z,101163.88
2023-05-04T05:43:35.442Z,101172.56
2023-05-04T05:44:37.742Z,101162.07
2023-05-04T05:45:39.722Z,101158.38
2023-05-04T05:46:44.256Z,101158.38
2023-05-04T05:47:46.454Z,101154.41
2023-05-04T05:48:49.472Z,101154.16
2023-05-04T05:49:51.577Z,101152.80
2023-05-04T05:50:54.239Z,101143.37
2023-05-04T05:51:56.271Z,101153.16
2023-05-04T05:52:58.370Z,101147.45
2023-05-04T05:54:00.844Z,101139.73
2023-05-04T05:55:03.191Z,101149.95
2023-05-04T05:56:07.372Z,101145.34
2023-05-04T05:57:09.836Z,101147.22
2023-05-04T05:58:11.994Z,101147.28
2023-05-04T05:59:15.346Z,101145.91
2023-05-04T06:00:20.963Z,101145.13
2023-05-04T06:01:23.231Z,101140.00
2023-05-04T06:02:25.497Z,101139.88
2023-05-04T06:03:28.368Z,101146.69
2023-05-04T06:04:30.853Z,101145.77
2023-05-04T06:05:33.906Z,101140.84
2023-05-04T06:06:36.128Z,101138.98
2023-05-04T06:07:38.387Z,101138.52
2023-05-04T06:08:40.382Z,101137.14
2023-05-04T06:09:42.521Z,101131.24
2023-05-04T06:10:45.762Z,101133.25
2023-05-04T06:11:48.098Z,101124.75
2023-05-04T06:17:12.948Z,101134.66
2023-05-04T06:18:17.004Z,101131.55
2023-05-04T06:19:19.252Z,101129.53
2023-05-04T06:20:21.843Z,101137.45
2023-05-04T06:21:23.922Z,101132.94
2023-05-04T06:22:26.199Z,101141.49
2023-05-04T06:23:28.323Z,101139.52
2023-05-04T06:24:31.417Z,101123.38
2023-05-04T06:25:33.430Z,101132.70
2023-05-04T06:26:35.988Z,101134.12
2023-05-04T06:27:38.231Z,101138.64
2023-05-04T06:28:40.365Z,101134.75
2023-05-04T06:29:42.707Z,101135.09
2023-05-04T06:30:45.267Z,101129.04
2023-05-04T06:31:48.367Z,101132.31
2023-05-04T06:32:51.580Z,101129.66
2023-05-04T06:33:54.147Z,101132.92
2023-05-04T06:34:56.462Z,101136.82
2023-05-04T06:35:58.743Z,101138.22
2023-05-04T06:37:01.135Z,101133.56
2023-05-04T06:38:03.495Z,101137.27
2023-05-04T06:39:05.559Z,101132.92
2023-05-04T06:40:12.460Z,101131.83
2023-05-04T06:41:14.902Z,101132.91
2023-05-04T06:42:17.410Z,101132.14
2023-05-04T06:43:21.649Z,101130.59
2023-05-04T06:44:23.990Z,101128.26
2023-05-04T06:45:26.259Z,101129.03
2023-05-04T06:46:28.820Z,101133.07
2023-05-04T06:47:30.849Z,101133.38
2023-05-04T06:48:33.022Z,101127.44
2023-05-04T06:49:35.135Z,101128.20
2023-05-04T06:50:39.002Z,101128.78
2023-05-04T06:51:41.371Z,101122.03
2023-05-04T06:52:44.313Z,101118.91
2023-05-04T06:53:47.040Z,101124.95
2023-05-04T06:54:49.490Z,101129.57
2023-05-04T06:55:51.501Z,101125.05
2023-05-04T06:56:53.909Z,101118.84
2023-05-04T06:57:55.871Z,101118.78
2023-05-04T06:58:58.373Z,101124.04
2023-05-04T07:00:00.644Z,101114.99
2023-05-04T07:01:03.001Z,101121.54
2023-05-04T07:02:07.279Z,101108.79
2023-05-04T07:03:09.384Z,101120.47
2023-05-04T07:04:12.193Z,101118.27
2023-05-04T07:05:14.279Z,101116.38
2023-05-04T07:06:16.882Z,101113.50
2023-05-04T07:07:19.039Z,101115.65
2023-05-04T07:08:21.265Z,101119.35
2023-05-04T07:09:23.487Z,101120.52
2023-05-04T07:10:25.730Z,101117.54
2023-05-04T07:11:27.982Z,101112.06
2023-05-04T07:12:30.903Z,101114.17
2023-05-04T07:13:33.222Z,101111.84
2023-05-04T07:14:35.364Z,101119.22
2023-05-04T07:15:37.489Z,101108.30
2023-05-04T07:16:40.123Z,101107.28
2023-05-04T07:17:42.801Z,101118.02
2023-05-04T07:18:45.056Z,101115.81
2023-05-04T07:19:47.527Z,101125.59
2023-05-04T07:20:49.674Z,101126.55
2023-05-04T07:21:53.619Z,101117.84
2023-05-04T07:22:56.044Z,101120.22
2023-05-04T07:24:02.776Z,101126.00
2023-05-04T07:25:08.363Z,101125.52
2023-05-04T07:26:11.864Z,101120.60
2023-05-04T07:27:14.077Z,101117.25
2023-05-04T07:28:16.124Z,101124.30
2023-05-04T07:29:18.339Z,101119.27
2023-05-04T07:30:20.884Z,101116.59
2023-05-04T07:31:23.397Z,101118.27
2023-05-04T07:32:25.958Z,101119.14
2023-05-04T07:33:28.366Z,101114.31
2023-05-04T07:34:41.876Z,101112.77
2023-05-04T07:35:34.702Z,101102.54
2023-05-04T07:36:36.803Z,101108.71
2023-05-04T07:37:38.767Z,101115.39
2023-05-04T07:38:41.065Z,101115.98
2023-05-04T07:40:53.994Z,101121.12
2023-05-04T07:41:56.178Z,101122.72
2023-05-04T07:42:58.414Z,101123.32
2023-05-04T07:44:00.992Z,101129.70
2023-05-04T07:45:06.581Z,101128.27
2023-05-04T07:46:09.184Z,101128.66
2023-05-04T07:47:12.279Z,101126.58
2023-05-04T07:48:14.355Z,101127.77
2023-05-04T07:49:16.775Z,101134.16
2023-05-04T07:50:22.065Z,101128.91
2023-05-04T07:51:24.288Z,101131.89
2023-05-04T07:52:26.523Z,101133.31
2023-05-04T07:53:28.689Z,101132.66
2023-05-04T07:54:30.826Z,101131.34
2023-05-04T07:55:34.040Z,101137.05
2023-05-04T07:56:38.066Z,101136.23
2023-05-04T07:57:40.186Z,101138.94
2023-05-04T07:58:42.227Z,101130.63
2023-05-04T07:59:44.536Z,101135.77
2023-05-04T08:00:48.630Z,101137.20
2023-05-04T08:01:51.161Z,101126.87
2023-05-04T08:02:53.589Z,101123.18
2023-05-04T08:03:55.740Z,101131.33
2023-05-04T08:04:57.981Z,101139.34
2023-05-04T08:05:59.961Z,101133.83
2023-05-04T08:07:02.017Z,101125.22
2023-05-04T08:08:07.915Z,101117.86
2023-05-04T08:09:10.201Z,101119.00
2023-05-04T08:10:12.553Z,101117.93
2023-05-04T08:11:20.652Z,101114.22
2023-05-04T08:12:19.211Z,101119.44
2023-05-04T08:13:21.466Z,101122.25
2023-05-04T08:14:23.696Z,101121.87
2023-05-04T08:15:26.130Z,101117.19
2023-05-04T08:16:28.759Z,101115.23
2023-05-04T08:17:30.969Z,101117.03
2023-05-04T08:18:33.272Z,101117.03
2023-05-04T08:19:35.389Z,101118.87
2023-05-04T08:20:37.670Z,101117.61
2023-05-04T08:21:39.705Z,101123.17
2023-05-04T08:22:41.816Z,101112.73
2023-05-04T08:23:44.012Z,101108.20
2023-05-04T08:24:46.206Z,101103.95
2023-05-04T08:25:48.658Z,101113.92
2023-05-04T08:27:00.040Z,101112.47
2023-05-04T08:27:55.348Z,101111.33
2023-05-04T08:29:06.937Z,101104.80
2023-05-04T08:30:14.235Z,101111.08
2023-05-04T08:31:16.728Z,101107.01
2023-05-04T08:32:19.053Z,101104.20
2023-05-04T08:33:21.404Z,101105.66
2023-05-04T08:34:24.193Z,101105.17
2023-05-04T08:35:26.241Z,101111.97
2023-05-04T08:36:29.958Z,101101.50
2023-05-04T08:37:32.211Z,101111.36
2023-05-04T08:38:34.414Z,101105.39
2023-05-04T08:39:36.337Z,101111.17
2023-05-04T08:40:40.956Z,101106.17
2023-05-04T08:41:43.187Z,101109.06
2023-05-04T08:42:45.420Z,101107.80
2023-05-04T08:43:47.797Z,101101.19
2023-05-04T08:44:50.130Z,101104.00
2023-05-04T08:45:52.412Z,101104.70
2023-05-04T08:46:54.995Z,101105.19
2023-05-04T08:47:57.348Z,101097.82
2023-05-04T08:48:59.928Z,101097.94
2023-05-04T08:50:05.229Z,101103.36
2023-05-04T08:51:07.529Z,101108.08
2023-05-04T08:52:09.788Z,101095.29
2023-05-04T08:53:15.137Z,101103.23
2023-05-04T08:54:17.466Z,101093.09
2023-05-04T08:55:22.788Z,101096.06
2023-05-04T08:56:25.317Z,101104.61
2023-05-04T08:57:27.555Z,101100.74
2023-05-04T08:58:29.860Z,101098.14
2023-05-04T08:59:32.017Z,101097.93
2023-05-04T09:00:34.182Z,101102.57
2023-05-04T09:01:38.452Z,101099.00
2023-05-04T09:02:40.799Z,101101.69
2023-05-04T09:03:44.341Z,101104.70
2023-05-04T09:04:46.701Z,101104.91
2023-05-04T09:05:49.794Z,101107.92
2023-05-04T09:06:52.210Z,101101.03
2023-05-04T09:07:54.343Z,101102.88
2023-05-04T09:08:56.472Z,101102.66
2023-05-04T09:09:58.813Z,101104.98
2023-05-04T09:11:00.880Z,101110.81
2023-05-04T09:12:05.906Z,101107.14
2023-05-04T09:13:08.598Z,101103.22
2023-05-04T09:14:11.873Z,101103.77
2023-05-04T09:16:44.716Z,101102.09
2023-05-04T09:18:02.454Z,101103.77
2023-05-04T09:19:07.365Z,101101.79
2023-05-04T09:20:14.748Z,101109.47
2023-05-04T09:21:17.040Z,101109.66
2023-05-04T09:22:19.167Z,101105.30
2023-05-04T09:23:21.929Z,101105.79
2023-05-04T09:25:51.590Z,101105.71
2023-05-04T09:26:55.393Z,101101.14
2023-05-04T09:27:57.545Z,101106.21
2023-05-04T09:29:12.490Z,101097.98
2023-05-04T09:30:14.847Z,101106.80
2023-05-04T09:31:17.023Z,101109.61
2023-05-04T09:32:20.332Z,101099.16
2023-05-04T09:33:25.906Z,101106.31
2023-05-04T09:34:29.319Z,101097.70
2023-05-04T09:35:33.782Z,101100.98
2023-05-04T09:36:36.194Z,101106.70
2023-05-04T09:37:44.784Z,101093.72
2023-05-04T09:38:46.977Z,101098.34
2023-05-04T09:39:53.055Z,101098.34
2023-05-04T09:40:55.409Z,101092.23
2023-05-04T09:41:57.443Z,101095.42
2023-05-04T09:42:59.650Z,101088.55
2023-05-04T09:44:02.440Z,101089.34
2023-05-04T09:45:07.462Z,101083.81
2023-05-04T09:47:35.409Z,101081.80
2023-05-04T09:48:37.765Z,101081.03
2023-05-04T09:49:39.882Z,101078.55
2023-05-04T09:50:47.328Z,101074.77
2023-05-04T09:51:49.381Z,101074.77
2023-05-04T09:52:51.444Z,101077.58
2023-05-04T09:53:53.694Z,101071.88
2023-05-04T09:54:55.595Z,101073.22
2023-05-04T09:56:08.280Z,101091.14
2023-05-04T09:57:14.646Z,101074.84
2023-05-04T09:58:16.806Z,101072.03
2023-05-04T09:59:19.960Z,101071.05
2023-05-04T10:00:22.333Z,101077.45
2023-05-04T10:02:37.084Z,101073.00
2023-05-04T10:03:39.601Z,101080.87
2023-05-04T10:04:41.766Z,101072.16
2023-05-04T10:05:43.948Z,101075.95
2023-05-04T10:06:46.418Z,101071.31
2023-05-04T10:07:48.613Z,101064.14
2023-05-04T10:08:51.054Z,101066.95
2023-05-04T10:09:53.096Z,101062.06
2023-05-04T10:10:56.462Z,101067.11
2023-05-04T10:12:00.762Z,101066.63
2023-05-04T10:13:03.074Z,101067.88
2023-05-04T10:14:06.331Z,101068.09
2023-05-04T10:15:11.069Z,101068.58
2023-05-04T10:16:29.294Z,101070.98
2023-05-04T10:17:42.962Z,101067.47
2023-05-04T10:20:29.091Z,101061.06
2023-05-04T10:22:10.029Z,101069.70
2023-05-04T10:23:32.207Z,101058.29
2023-05-04T10:25:02.533Z,101057.52
2023-05-04T10:26:25.235Z,101054.98
2023-05-04T10:29:23.871Z,101051.53
2023-05-04T10:30:26.605Z,101047.60
2023-05-04T10:31:41.860Z,101048.38
2023-05-04T10:32:44.360Z,101049.43
2023-05-04T10:33:46.879Z,101037.75
2023-05-04T10:34:49.081Z,101038.77
2023-05-04T10:35:54.494Z,101032.94
2023-05-04T10:36:59.110Z,101046.22
2023-05-04T10:38:02.187Z,101040.20
2023-05-04T10:39:07.130Z,101038.22
2023-05-04T10:40:12.713Z,101038.47
2023-05-04T10:41:17.136Z,101029.53
2023-05-04T10:42:20.010Z,101038.58
2023-05-04T10:43:22.707Z,101040.41
2023-05-04T10:44:26.015Z,101046.06
2023-05-04T10:49:15.061Z,101036.81
2023-05-04T10:50:17.819Z,101034.03
2023-05-04T10:51:28.117Z,101035.36
2023-05-04T10:52:28.381Z,101039.98
2023-05-04T10:53:31.641Z,101035.19
2023-05-04T10:54:37.570Z,101034.69
2023-05-04T10:55:41.914Z,101039.27
2023-05-04T10:56:44.101Z,101039.77
2023-05-04T10:57:50.504Z,101030.72
2023-05-04T10:58:53.520Z,101030.97
2023-05-04T10:59:56.913Z,101032.63
2023-05-04T11:00:59.416Z,101036.42
2023-05-04T11:02:02.337Z,101034.88
2023-05-04T11:03:04.731Z,101030.55
2023-05-04T11:05:30.444Z,101046.53
2023-05-04T11:06:32.973Z,101046.19
2023-05-04T11:07:38.839Z,101045.36
2023-05-04T11:08:41.167Z,101039.48
2023-05-04T11:09:45.088Z,101039.92
2023-05-04T11:10:48.343Z,101039.92
2023-05-04T11:11:50.680Z,101033.52
2023-05-04T11:12:54.643Z,101037.32
2023-05-04T11:13:56.819Z,101039.36
2023-05-04T11:15:09.179Z,101029.66
2023-05-04T11:16:12.784Z,101027.40
2023-05-04T11:18:30.785Z,101036.17
2023-05-04T11:19:34.787Z,101031.57
2023-05-04T11:20:37.447Z,101022.33
2023-05-04T11:21:40.810Z,101031.54
2023-05-04T11:22:43.484Z,101032.03
2023-05-04T11:23:45.510Z,101027.73
2023-05-04T11:24:47.809Z,101030.09
2023-05-04T11:25:50.140Z,101024.67
2023-05-04T11:26:52.446Z,101024.67
2023-05-04T11:27:54.879Z,101025.14
2023-05-04T11:30:08.668Z,101021.37
2023-05-04T11:31:16.037Z,101019.80
2023-05-04T11:32:18.211Z,101018.25
2023-05-04T11:33:20.334Z,101012.90
2023-05-04T11:34:22.455Z,101010.89
2023-05-04T11:35:25.062Z,101012.77
2023-05-04T11:36:28.098Z,101012.78
2023-05-04T11:37:29.996Z,101013.39
2023-05-04T11:38:32.087Z,101008.75
2023-05-04T11:39:34.454Z,101004.82
2023-05-04T11:40:38.228Z,101003.77
2023-05-04T11:41:40.503Z,100999.19
2023-05-04T11:42:42.917Z,101001.01
2023-05-04T11:43:46.059Z,101011.52
2023-05-04T11:44:48.429Z,101005.09
2023-05-04T11:45:50.574Z,100995.33
2023-05-04T11:46:53.285Z,100997.38
2023-05-04T11:47:55.803Z,100987.66
2023-05-04T11:48:59.035Z,100992.46
2023-05-04T11:50:03.155Z,100993.23
2023-05-04T11:51:05.478Z,100990.20
2023-05-04T11:52:09.791Z,100988.38
2023-05-04T11:53:12.515Z,100982.48
2023-05-04T11:54:21.904Z,100981.98
2023-05-04T11:55:26.725Z,100983.86
2023-05-04T11:56:28.992Z,100977.53
2023-05-04T11:57:31.228Z,100973.77
2023-05-04T11:58:33.444Z,100966.38
2023-05-04T11:59:35.703Z,100964.65
2023-05-04T12:00:46.189Z,100970.06
2023-05-04T12:01:48.546Z,100963.73
2023-05-04T12:02:54.472Z,100960.69
2023-05-04T12:03:57.415Z,100971.95
2023-05-04T12:05:01.223Z,100967.28
2023-05-04T12:06:05.777Z,100960.10
2023-05-04T12:07:08.267Z,100960.06
2023-05-04T12:08:10.510Z,100953.33
2023-05-04T12:09:12.530Z,100956.83
2023-05-04T12:11:36.123Z,100953.91
2023-05-04T12:12:40.179Z,100957.66
2023-05-04T12:15:00.051Z,100956.06
2023-05-04T12:16:17.870Z,100958.10
2023-05-04T12:17:19.926Z,100957.42
2023-05-04T12:18:22.557Z,100953.39
2023-05-04T12:19:24.785Z,100957.53
2023-05-04T12:20:28.021Z,100956.83
2023-05-04T12:21:30.384Z,100957.41
2023-05-04T12:22:32.423Z,100962.77
2023-05-04T12:23:34.486Z,100954.86
2023-05-04T12:24:36.807Z,100955.09
2023-05-04T12:25:47.390Z,100958.64
2023-05-04T12:26:43.748Z,100958.34
2023-05-04T12:27:45.843Z,100957.30
2023-05-04T12:28:48.460Z,100955.97
2023-05-04T12:29:50.798Z,100951.62